createdAt,value
2023-01-09T00:00:52.925Z,74.70
2023-01-09T00:03:19.377Z,74.85
2023-01-09T00:05:45.911Z,74.82
2023-01-09T00:08:12.382Z,74.87
2023-01-09T00:10:38.841Z,74.77
2023-01-09T00:13:05.321Z,75.22
2023-01-09T00:15:31.827Z,74.75
2023-01-09T00:17:58.294Z,74.56
2023-01-09T00:20:24.783Z,74.44
2023-01-09T00:22:51.264Z,75.33
2023-01-09T00:25:17.770Z,74.76
2023-01-09T00:27:44.252Z,74.67
2023-01-09T00:30:11.070Z,74.64
2023-01-09T00:32:37.529Z,74.62
2023-01-09T00:35:04.135Z,74.33
2023-01-09T00:37:30.612Z,74.34
2023-01-09T00:39:57.093Z,74.26
2023-01-09T00:42:24.281Z,74.51
2023-01-09T00:45:00.953Z,74.23
2023-01-09T00:47:28.654Z,73.58
2023-01-09T00:49:55.515Z,73.48
2023-01-09T00:52:22.009Z,73.87
2023-01-09T00:54:48.690Z,73.75
2023-01-09T00:57:15.267Z,73.83
2023-01-09T00:59:41.794Z,73.42
2023-01-09T01:02:08.754Z,73.07
2023-01-09T01:04:54.069Z,73.42
2023-01-09T01:07:38.798Z,72.93
2023-01-09T01:10:06.028Z,72.52
2023-01-09T01:16:00.834Z,72.70
2023-01-09T01:18:27.288Z,72.62
2023-01-09T01:20:53.774Z,73.73
2023-01-09T01:23:20.250Z,73.33
2023-01-09T01:25:46.926Z,73.08
2023-01-09T01:28:13.425Z,73.51
2023-01-09T01:30:40.321Z,74.50
2023-01-09T01:33:06.881Z,74.94
2023-01-09T01:35:33.385Z,75.20
2023-01-09T01:37:59.934Z,75.39
2023-01-09T01:40:26.451Z,75.13
2023-01-09T01:42:53.420Z,75.49
2023-01-09T01:45:20.609Z,75.89
2023-01-09T01:47:50.319Z,75.56
2023-01-09T01:50:16.783Z,75.92
2023-01-09T01:52:44.520Z,76.17
2023-01-09T01:55:11.038Z,75.93
2023-01-09T01:57:38.026Z,76.24
2023-01-09T02:00:04.817Z,76.25
2023-01-09T02:02:31.724Z,76.34
2023-01-09T02:04:58.754Z,76.32
2023-01-09T02:07:25.248Z,76.47
2023-01-09T02:09:51.932Z,76.53
2023-01-09T02:12:25.032Z,76.50
2023-01-09T02:14:54.790Z,76.78
2023-01-09T02:17:21.251Z,76.42
2023-01-09T02:23:19.076Z,76.43
2023-01-09T02:25:55.447Z,76.46
2023-01-09T02:28:25.063Z,76.66
2023-01-09T02:30:54.578Z,76.56
2023-01-09T02:33:33.840Z,76.89
2023-01-09T02:36:17.194Z,76.76
2023-01-09T02:38:52.745Z,77.19
2023-01-09T02:41:24.456Z,77.26
2023-01-09T02:44:09.571Z,76.97
2023-01-09T02:46:36.018Z,76.88
2023-01-09T02:49:02.470Z,76.80
2023-01-09T02:51:35.005Z,77.13
2023-01-09T02:54:07.209Z,76.82
2023-01-09T02:56:42.733Z,76.78
2023-01-09T02:59:13.055Z,76.36
2023-01-09T03:01:52.448Z,76.58
2023-01-09T03:04:28.311Z,76.49
2023-01-09T03:07:24.137Z,76.06
2023-01-09T03:09:50.748Z,76.07
2023-01-09T03:12:18.409Z,75.68
2023-01-09T03:14:46.281Z,75.45
2023-01-09T03:17:13.338Z,75.36
2023-01-09T03:19:39.812Z,75.41
2023-01-09T03:22:06.458Z,74.90
2023-01-09T03:24:33.330Z,74.72
2023-01-09T03:26:59.835Z,75.09
2023-01-09T03:29:27.458Z,74.29
2023-01-09T03:31:55.352Z,74.42
2023-01-09T03:34:21.832Z,74.13
2023-01-09T03:36:48.323Z,73.38
2023-01-09T03:39:14.778Z,73.61
2023-01-09T03:41:41.267Z,73.61
2023-01-09T03:44:07.734Z,72.85
2023-01-09T03:46:34.210Z,72.52
2023-01-09T03:49:00.701Z,71.93
2023-01-09T03:51:27.185Z,71.83
2023-01-09T03:53:53.731Z,72.11
2023-01-09T03:56:20.298Z,71.47
2023-01-09T03:58:46.817Z,71.72
2023-01-09T04:01:29.753Z,71.33
2023-01-09T04:03:56.315Z,71.63
2023-01-09T04:06:22.884Z,72.24
2023-01-09T04:08:49.373Z,70.85
2023-01-09T04:11:18.138Z,71.28
2023-01-09T04:13:45.222Z,71.39
2023-01-09T04:16:11.748Z,71.03
2023-01-09T04:18:38.335Z,71.23
2023-01-09T04:21:04.805Z,70.58
2023-01-09T04:23:31.329Z,70.67
2023-01-09T04:25:57.810Z,70.31
2023-01-09T04:28:24.328Z,70.77
2023-01-09T04:30:50.760Z,70.52
2023-01-09T04:33:17.248Z,70.51
2023-01-09T04:35:43.692Z,70.17
2023-01-09T04:38:10.207Z,70.31
2023-01-09T04:40:36.687Z,70.92
2023-01-09T04:43:03.149Z,70.27
2023-01-09T04:45:29.691Z,70.78
2023-01-09T04:47:56.175Z,70.91
2023-01-09T04:50:22.753Z,71.17
2023-01-09T04:52:49.272Z,71.68
2023-01-09T04:55:15.814Z,71.87
2023-01-09T04:57:42.266Z,71.74
2023-01-09T05:00:10.004Z,71.84
2023-01-09T05:02:36.934Z,72.29
2023-01-09T05:05:03.501Z,72.41
2023-01-09T05:07:29.950Z,72.29
2023-01-09T05:09:56.451Z,72.71
2023-01-09T05:12:22.908Z,72.81
2023-01-09T05:14:49.375Z,73.00
2023-01-09T05:17:15.852Z,73.06
2023-01-09T05:19:42.586Z,73.09
2023-01-09T05:22:09.086Z,73.30
2023-01-09T05:24:35.532Z,73.62
2023-01-09T05:27:02.839Z,73.81
2023-01-09T05:29:29.370Z,74.66
2023-01-09T05:31:55.894Z,74.31
2023-01-09T05:34:22.432Z,74.91
2023-01-09T05:36:48.893Z,75.72
2023-01-09T05:39:15.478Z,75.45
2023-01-09T05:41:41.918Z,75.60
2023-01-09T05:44:08.381Z,76.25
2023-01-09T05:46:34.909Z,76.34
2023-01-09T05:49:01.344Z,76.97
2023-01-09T05:51:27.855Z,76.63
2023-01-09T05:53:54.319Z,77.26
2023-01-09T05:56:20.757Z,76.71
2023-01-09T05:58:47.218Z,76.81
2023-01-09T06:01:13.703Z,77.25
2023-01-09T06:03:40.365Z,77.62
2023-01-09T06:06:07.014Z,77.41
2023-01-09T06:08:33.526Z,77.33
2023-01-09T06:10:59.959Z,77.39
2023-01-09T06:13:26.645Z,77.72
2023-01-09T06:15:53.109Z,77.89
2023-01-09T06:18:19.542Z,77.48
2023-01-09T06:20:46.350Z,78.04
2023-01-09T06:23:13.582Z,78.16
2023-01-09T06:25:40.297Z,78.23
2023-01-09T06:28:06.889Z,77.90
2023-01-09T06:30:34.117Z,78.15
2023-01-09T06:33:00.772Z,77.75
2023-01-09T06:35:27.371Z,78.38
2023-01-09T06:37:54.240Z,77.98
2023-01-09T06:40:21.269Z,78.28
2023-01-09T06:42:47.875Z,78.07
2023-01-09T06:45:14.540Z,78.80
2023-01-09T06:47:41.140Z,78.61
2023-01-09T06:50:09.404Z,78.67
2023-01-09T06:52:39.052Z,79.22
2023-01-09T06:55:05.923Z,79.69
2023-01-09T06:57:32.569Z,79.60
2023-01-09T06:59:59.076Z,79.96
2023-01-09T07:02:25.526Z,80.19
2023-01-09T07:04:52.071Z,79.88
2023-01-09T07:07:19.833Z,80.80
2023-01-09T07:09:46.449Z,80.64
2023-01-09T07:12:13.083Z,80.18
2023-01-09T07:14:39.689Z,80.83
2023-01-09T07:17:06.172Z,80.59
2023-01-09T07:19:32.665Z,80.87
2023-01-09T07:21:59.099Z,81.58
2023-01-09T07:24:25.523Z,81.13
2023-01-09T07:26:51.981Z,80.71
2023-01-09T07:29:18.520Z,79.67
2023-01-09T07:31:44.925Z,80.74
2023-01-09T07:34:11.411Z,80.87
2023-01-09T07:36:37.933Z,81.33
2023-01-09T07:39:04.403Z,80.93
2023-01-09T07:41:30.866Z,81.08
2023-01-09T07:43:57.586Z,81.05
2023-01-09T07:46:24.124Z,80.04
2023-01-09T07:49:26.757Z,80.41
2023-01-09T07:51:53.454Z,80.54
2023-01-09T07:54:19.941Z,80.73
2023-01-09T07:56:46.670Z,79.95
2023-01-09T07:59:13.147Z,79.43
2023-01-09T08:01:39.728Z,80.28
2023-01-09T08:04:06.354Z,80.94
2023-01-09T08:06:32.890Z,80.21
2023-01-09T08:08:59.461Z,80.10
2023-01-09T08:11:25.911Z,79.52
2023-01-09T08:13:53.412Z,79.52
2023-01-09T08:16:19.950Z,79.60
2023-01-09T08:18:46.551Z,80.11
2023-01-09T08:21:14.318Z,79.76
2023-01-09T08:23:40.790Z,79.11
2023-01-09T08:26:07.288Z,80.18
2023-01-09T08:28:33.795Z,80.39
2023-01-09T08:31:00.309Z,79.52
2023-01-09T08:33:26.881Z,80.27
2023-01-09T08:35:54.205Z,79.29
2023-01-09T08:38:22.066Z,80.10
2023-01-09T08:40:48.641Z,79.77
2023-01-09T08:43:33.717Z,80.70
2023-01-09T08:46:19.444Z,80.21
2023-01-09T08:48:46.028Z,80.29
2023-01-09T08:51:12.554Z,80.70
2023-01-09T08:53:39.040Z,79.42
2023-01-09T08:56:05.593Z,79.86
2023-01-09T08:58:32.066Z,79.56
2023-01-09T09:00:59.035Z,80.17
2023-01-09T09:03:25.488Z,79.57
2023-01-09T09:05:51.924Z,79.78
2023-01-09T09:08:20.029Z,79.52
2023-01-09T09:10:46.465Z,79.14
2023-01-09T09:13:12.900Z,79.46
2023-01-09T09:15:39.508Z,79.04
2023-01-09T09:18:07.018Z,80.18
2023-01-09T09:20:37.987Z,79.98
2023-01-09T09:23:04.643Z,78.87
2023-01-09T09:25:31.141Z,80.14
2023-01-09T09:27:57.639Z,80.42
2023-01-09T09:30:24.267Z,79.86
2023-01-09T09:32:50.826Z,79.77
2023-01-09T09:35:21.209Z,80.32
2023-01-09T09:37:54.588Z,79.22
2023-01-09T09:40:23.282Z,79.02
2023-01-09T09:43:18.207Z,79.46
2023-01-09T09:45:46.745Z,79.32
2023-01-09T09:48:18.986Z,79.32
2023-01-09T09:50:51.509Z,80.46
2023-01-09T09:53:21.942Z,80.17
2023-01-09T09:55:48.497Z,80.05
2023-01-09T09:58:21.788Z,80.12
2023-01-09T10:00:51.385Z,80.13
2023-01-09T10:03:33.364Z,79.58
2023-01-09T10:06:00.485Z,80.53
2023-01-09T10:08:45.959Z,80.13
2023-01-09T10:11:13.483Z,80.10
2023-01-09T10:13:58.781Z,80.81
2023-01-09T10:16:43.668Z,80.67
2023-01-09T10:19:19.334Z,79.88
2023-01-09T10:22:09.267Z,79.73
2023-01-09T10:25:11.549Z,79.92
2023-01-09T10:27:38.210Z,80.79
2023-01-09T10:30:24.504Z,81.45
2023-01-09T10:33:01.299Z,80.88
2023-01-09T10:35:48.097Z,80.92
2023-01-09T10:38:15.979Z,81.73
2023-01-09T10:40:44.217Z,81.31
2023-01-09T10:43:16.657Z,82.12
2023-01-09T10:46:21.499Z,82.02
2023-01-09T10:48:50.719Z,82.12
2023-01-09T10:51:21.383Z,82.32
2023-01-09T10:53:57.131Z,81.70
2023-01-09T10:56:27.337Z,82.07
2023-01-09T10:58:54.287Z,82.04
2023-01-09T11:01:24.271Z,81.69
2023-01-09T11:03:50.740Z,82.35
2023-01-09T11:06:22.391Z,82.74
2023-01-09T11:08:50.801Z,82.17
2023-01-09T11:11:45.412Z,82.56
2023-01-09T11:14:15.707Z,82.20
2023-01-09T11:16:52.147Z,82.54
2023-01-09T11:19:18.590Z,83.12
2023-01-09T11:21:45.227Z,82.48
2023-01-09T11:24:26.454Z,82.40
2023-01-09T11:26:53.737Z,83.08
2023-01-09T11:29:20.945Z,82.31
2023-01-09T11:31:51.769Z,81.72
2023-01-09T11:34:18.618Z,82.80
2023-01-09T11:36:45.504Z,83.05
2023-01-09T11:39:28.527Z,83.22
2023-01-09T11:41:55.777Z,82.46
2023-01-09T11:44:22.322Z,82.89
2023-01-09T11:46:49.094Z,82.96
2023-01-09T11:49:15.545Z,82.97
2023-01-09T11:51:42.076Z,82.83
2023-01-09T11:54:08.600Z,83.18
2023-01-09T11:56:36.127Z,82.87
2023-01-09T11:59:02.561Z,83.28
2023-01-09T12:01:38.221Z,84.12
2023-01-09T12:04:07.835Z,84.02
2023-01-09T12:06:40.455Z,83.98
2023-01-09T12:09:07.298Z,84.78
2023-01-09T12:11:46.785Z,85.05
2023-01-09T12:14:19.343Z,85.22
2023-01-09T12:17:01.059Z,85.36
2023-01-09T12:19:32.362Z,84.99
2023-01-09T12:22:11.613Z,85.01
2023-01-09T12:24:56.790Z,84.95
2023-01-09T12:27:26.437Z,85.44
2023-01-09T12:30:05.207Z,85.17
2023-01-09T12:32:37.985Z,85.49
2023-01-09T12:35:19.781Z,85.29
2023-01-09T12:38:05.758Z,85.34
2023-01-09T12:40:41.468Z,85.86
2023-01-09T12:43:14.177Z,85.87
2023-01-09T12:45:40.656Z,85.33
2023-01-09T12:48:10.952Z,84.59
2023-01-09T12:50:56.260Z,84.30
2023-01-09T12:53:34.697Z,83.89
2023-01-09T12:56:18.666Z,84.17
2023-01-09T12:58:48.742Z,83.77
2023-01-09T13:01:17.408Z,83.42
2023-01-09T13:03:47.427Z,83.50
2023-01-09T13:06:15.043Z,82.86
2023-01-09T13:08:48.416Z,82.95
2023-01-09T13:11:21.251Z,83.30
2023-01-09T13:14:01.937Z,82.92
2023-01-09T13:16:29.687Z,83.28
2023-01-09T13:18:57.833Z,83.14
2023-01-09T13:21:24.361Z,83.24
2023-01-09T13:24:01.758Z,83.22
2023-01-09T13:26:28.234Z,83.35
2023-01-09T13:29:08.786Z,83.39
2023-01-09T13:31:53.948Z,83.10
2023-01-09T13:34:22.793Z,83.43
2023-01-09T13:36:50.501Z,83.69
2023-01-09T13:39:27.223Z,83.48
2023-01-09T13:42:13.388Z,83.66
2023-01-09T13:44:40.086Z,83.67
2023-01-09T13:47:09.539Z,83.84
2023-01-09T13:49:42.290Z,83.59
2023-01-09T13:52:27.463Z,82.80
2023-01-09T13:55:02.862Z,82.57
2023-01-09T13:57:30.301Z,82.15
2023-01-09T14:00:20.000Z,82.27
2023-01-09T14:02:47.041Z,82.27
2023-01-09T14:05:13.493Z,82.16
2023-01-09T14:07:41.357Z,82.21
2023-01-09T14:10:33.813Z,82.97
2023-01-09T14:13:00.290Z,82.90
2023-01-09T14:15:26.895Z,82.54
2023-01-09T14:18:03.084Z,83.39
2023-01-09T14:20:36.750Z,83.17
2023-01-09T14:25:56.211Z,82.98
2023-01-09T14:28:26.770Z,82.29
2023-01-09T14:30:53.257Z,82.60
2023-01-09T14:33:19.839Z,82.48
2023-01-09T14:35:48.372Z,82.22
2023-01-09T14:38:21.598Z,81.55
2023-01-09T14:40:50.985Z,81.62
2023-01-09T14:43:21.645Z,81.88
2023-01-09T14:45:49.955Z,82.25
2023-01-09T14:48:16.671Z,82.55
2023-01-09T14:50:48.814Z,82.92
2023-01-09T14:53:22.892Z,82.89
2023-01-09T14:55:53.276Z,82.93
2023-01-09T14:58:29.813Z,82.96
2023-01-09T15:01:03.729Z,83.00
2023-01-09T15:03:34.401Z,82.89
2023-01-09T15:06:00.852Z,82.95
2023-01-09T15:08:27.322Z,82.79
2023-01-09T15:10:54.162Z,82.68
2023-01-09T15:13:30.656Z,82.91
2023-01-09T15:15:57.135Z,82.63
2023-01-09T15:18:29.329Z,82.77
2023-01-09T15:21:00.050Z,82.75
2023-01-09T15:23:29.621Z,82.88
2023-01-09T15:25:56.871Z,82.82
2023-01-09T15:28:30.941Z,83.28
2023-01-09T15:31:04.968Z,83.29
2023-01-09T15:33:31.557Z,83.39
2023-01-09T15:36:02.624Z,83.57
2023-01-09T15:38:29.833Z,83.62
2023-01-09T15:40:59.640Z,84.00
2023-01-09T15:43:27.012Z,83.93
2023-01-09T15:45:53.511Z,84.07
2023-01-09T15:48:27.178Z,84.03
2023-01-09T15:51:04.400Z,84.27
2023-01-09T15:53:31.021Z,84.00
2023-01-09T15:56:06.949Z,83.94
2023-01-09T15:58:36.963Z,83.95
2023-01-09T16:01:12.660Z,84.17
2023-01-09T16:03:39.210Z,83.86
2023-01-09T16:06:09.989Z,83.85
2023-01-09T16:08:57.866Z,84.17
2023-01-09T16:11:26.107Z,83.97
2023-01-09T16:13:52.620Z,83.77
2023-01-09T16:16:23.790Z,83.85
2023-01-09T16:18:50.924Z,83.65
2023-01-09T16:21:31.184Z,83.89
2023-01-09T16:23:58.813Z,83.63
2023-01-09T16:26:26.088Z,83.10
2023-01-09T16:28:52.726Z,83.21
2023-01-09T16:31:23.773Z,83.12
2023-01-09T16:33:54.025Z,82.95
2023-01-09T16:36:21.748Z,82.71
2023-01-09T16:38:48.308Z,81.81
2023-01-09T16:41:39.949Z,82.32
2023-01-09T16:44:09.781Z,82.10
2023-01-09T16:46:38.294Z,81.96
2023-01-09T16:49:05.717Z,82.23
2023-01-09T16:51:32.250Z,82.30
2023-01-09T16:53:58.876Z,82.78
2023-01-09T16:56:28.545Z,82.76
2023-01-09T16:58:55.179Z,82.60
2023-01-09T17:01:22.215Z,82.77
2023-01-09T17:03:48.944Z,82.49
2023-01-09T17:06:16.299Z,82.93
2023-01-09T17:08:44.044Z,82.67
2023-01-09T17:11:14.214Z,82.17
2023-01-09T17:13:40.660Z,82.25
2023-01-09T17:16:07.434Z,82.78
2023-01-09T17:18:34.155Z,83.00
2023-01-09T17:21:00.698Z,82.86
2023-01-09T17:23:27.525Z,83.09
2023-01-09T17:26:16.072Z,82.87
2023-01-09T17:28:49.534Z,83.38
2023-01-09T17:31:16.023Z,82.72
2023-01-09T17:33:42.748Z,82.64
2023-01-09T17:36:15.407Z,82.53
2023-01-09T17:38:41.856Z,82.50
2023-01-09T17:41:10.150Z,82.79
2023-01-09T17:43:36.841Z,82.76
2023-01-09T17:46:03.498Z,82.83
2023-01-09T17:48:30.036Z,82.82
2023-01-09T17:50:56.651Z,83.10
2023-01-09T17:53:24.839Z,83.20
2023-01-09T17:55:51.304Z,83.16
2023-01-09T17:58:20.823Z,83.57
2023-01-09T18:00:47.934Z,83.39
2023-01-09T18:03:14.402Z,83.59
2023-01-09T18:05:40.853Z,83.17
2023-01-09T18:08:10.089Z,83.61
2023-01-09T18:10:37.511Z,83.22
2023-01-09T18:13:04.032Z,83.29
2023-01-09T18:15:30.615Z,83.26
2023-01-09T18:17:57.616Z,83.45
2023-01-09T18:20:25.551Z,83.62
2023-01-09T18:22:52.134Z,83.43
2023-01-09T18:25:18.585Z,83.76
2023-01-09T18:27:45.082Z,83.75
2023-01-09T18:30:11.833Z,83.70
2023-01-09T18:32:38.316Z,83.72
2023-01-09T18:35:05.037Z,83.45
2023-01-09T18:37:31.583Z,83.53
2023-01-09T18:39:58.163Z,83.70
2023-01-09T18:42:24.720Z,83.73
2023-01-09T18:44:51.211Z,83.40
2023-01-09T18:47:17.688Z,83.48
2023-01-09T18:49:44.255Z,83.60
2023-01-09T18:52:10.755Z,83.21
2023-01-09T18:54:38.524Z,83.16
2023-01-09T18:57:05.035Z,83.50
2023-01-09T18:59:31.538Z,83.23
2023-01-09T19:01:58.636Z,83.11
2023-01-09T19:04:26.880Z,83.16
2023-01-09T19:06:56.114Z,83.37
2023-01-09T19:09:22.573Z,83.02
2023-01-09T19:11:49.149Z,83.41
2023-01-09T19:14:15.735Z,83.32
2023-01-09T19:16:42.562Z,82.88
2023-01-09T19:19:09.153Z,83.00
2023-01-09T19:21:36.074Z,83.21
2023-01-09T19:24:02.984Z,82.96
2023-01-09T19:26:31.106Z,82.86
2023-01-09T19:28:57.938Z,82.82
2023-01-09T19:31:25.459Z,82.79
2023-01-09T19:33:52.471Z,82.78
2023-01-09T19:36:19.009Z,82.73
2023-01-09T19:38:45.641Z,82.84
2023-01-09T19:41:14.526Z,82.98
2023-01-09T19:43:41.539Z,82.85
2023-01-09T19:46:12.607Z,82.85
2023-01-09T19:48:39.160Z,82.86
2023-01-09T19:51:06.571Z,82.79
2023-01-09T19:53:33.277Z,83.07
2023-01-09T19:56:19.857Z,83.06
2023-01-09T19:58:50.319Z,82.94
2023-01-09T20:01:17.790Z,82.98
2023-01-09T20:03:44.491Z,82.79
2023-01-09T20:06:14.564Z,83.14
2023-01-09T20:08:43.243Z,82.94
2023-01-09T20:11:09.852Z,83.03
2023-01-09T20:13:36.420Z,83.11
2023-01-09T20:16:03.714Z,83.29
2023-01-09T20:18:30.829Z,83.05
2023-01-09T20:20:57.405Z,82.78
2023-01-09T20:23:24.858Z,83.20
2023-01-09T20:25:51.375Z,82.68
2023-01-09T20:28:17.844Z,82.82
2023-01-09T20:30:47.972Z,82.53
2023-01-09T20:33:14.851Z,82.81
2023-01-09T20:35:41.383Z,83.00
2023-01-09T20:38:08.020Z,82.88
2023-01-09T20:40:34.808Z,82.42
2023-01-09T20:43:01.354Z,82.38
2023-01-09T20:45:28.205Z,82.22
2023-01-09T20:47:54.775Z,82.24
2023-01-09T20:50:21.774Z,82.64
2023-01-09T20:52:48.262Z,82.69
2023-01-09T20:55:14.757Z,83.18
2023-01-09T20:57:41.233Z,82.75
2023-01-09T21:00:08.079Z,83.16
2023-01-09T21:02:34.859Z,83.36
2023-01-09T21:05:01.595Z,83.45
2023-01-09T21:07:28.205Z,83.39
2023-01-09T21:09:54.893Z,83.21
2023-01-09T21:12:37.650Z,83.61
2023-01-09T21:15:05.279Z,83.58
2023-01-09T21:17:35.491Z,83.66
2023-01-09T21:20:02.380Z,83.54
2023-01-09T21:22:28.868Z,83.13
2023-01-09T21:24:55.507Z,83.58
2023-01-09T21:27:22.221Z,83.16
2023-01-09T21:29:48.807Z,83.66
2023-01-09T21:32:15.291Z,83.47
2023-01-09T21:34:41.933Z,83.06
2023-01-09T21:37:08.458Z,83.03
2023-01-09T21:39:35.315Z,80.87
2023-01-09T21:42:20.407Z,81.13
2023-01-09T21:45:05.610Z,82.03
2023-01-09T21:47:33.125Z,80.77
2023-01-09T21:49:59.620Z,80.10
2023-01-09T21:52:26.123Z,80.40
2023-01-09T21:54:52.779Z,80.57
2023-01-09T21:57:19.306Z,80.23
2023-01-09T21:59:45.822Z,80.40
2023-01-09T22:02:13.049Z,80.70
2023-01-09T22:04:39.708Z,81.18
2023-01-09T22:10:33.936Z,81.01
2023-01-09T22:13:17.775Z,81.58
2023-01-09T22:15:46.153Z,81.44
2023-01-09T22:18:12.624Z,81.19
2023-01-09T22:20:39.137Z,81.42
2023-01-09T22:23:05.623Z,81.27
2023-01-09T22:25:32.126Z,81.27
2023-01-09T22:27:58.956Z,81.04
2023-01-09T22:30:25.472Z,79.34
2023-01-09T22:32:51.990Z,78.67
2023-01-09T22:35:18.533Z,80.13
2023-01-09T22:37:45.559Z,79.96
2023-01-09T22:40:12.183Z,80.34
2023-01-09T22:42:38.757Z,79.43
2023-01-09T22:45:05.476Z,80.21
2023-01-09T22:47:31.932Z,80.33
2023-01-09T22:49:58.483Z,79.92
2023-01-09T22:52:25.176Z,80.76
2023-01-09T22:54:51.687Z,80.75
2023-01-09T22:57:18.235Z,80.08
2023-01-09T22:59:44.701Z,80.11
2023-01-09T23:02:11.310Z,79.93
2023-01-09T23:04:37.876Z,79.92
2023-01-09T23:07:04.360Z,79.71
2023-01-09T23:09:30.830Z,79.78
2023-01-09T23:12:03.001Z,79.57
2023-01-09T23:14:29.855Z,80.42
2023-01-09T23:16:56.465Z,79.34
2023-01-09T23:19:23.060Z,79.64
2023-01-09T23:21:49.625Z,80.07
2023-01-09T23:24:16.357Z,80.30
2023-01-09T23:26:44.385Z,80.14
2023-01-09T23:29:10.938Z,80.46
2023-01-09T23:31:37.571Z,80.74
2023-01-09T23:34:04.256Z,81.12
2023-01-09T23:36:30.877Z,80.85
2023-01-09T23:38:57.407Z,80.52
2023-01-09T23:41:43.956Z,80.26
2023-01-09T23:44:10.482Z,80.21
2023-01-09T23:46:36.921Z,79.41
2023-01-09T23:49:03.588Z,80.18
2023-01-09T23:51:50.319Z,79.75
2023-01-09T23:54:17.567Z,80.02
2023-01-09T23:56:44.110Z,79.89
2023-01-09T23:59:12.007Z,80.23
